Airport View

Enter AWOS ICAO identifier for current METAR.

ex. KFNL

KJQF 210105Z AUTO 00000KT 10SM CLR 19/12 A3030 RMK AO2

21 Sep 2019 00:52

Frequency: 133.675

Phone: 704-785-2145

Other Area AWOS: KCLT - KRUQ - KEQY - KIPJ

TAF KCLT 202332Z 2100/2206 21003KT P6SM SKC FM211000 24005KT P6SM FEW250 FM212300 18003KT P6SM SKC